createdAt,value
2019-05-03T00:00:51.976Z,4.10
2019-05-03T00:09:11.898Z,4.00
2019-05-03T00:17:29.384Z,4.50
2019-05-03T00:25:46.821Z,4.80
2019-05-03T00:34:08.411Z,3.60
2019-05-03T00:42:25.848Z,4.03
2019-05-03T00:50:43.381Z,3.23
2019-05-03T00:59:02.227Z,3.72
2019-05-03T01:07:22.105Z,3.10
2019-05-03T01:15:49.028Z,2.80
2019-05-03T01:24:06.493Z,3.20
2019-05-03T01:32:24.066Z,4.97
2019-05-03T01:40:41.994Z,3.03
2019-05-03T01:49:05.613Z,2.40
2019-05-03T01:57:23.060Z,2.87
2019-05-03T02:05:46.204Z,2.90
2019-05-03T02:14:03.812Z,2.67
2019-05-03T02:22:22.595Z,2.73
2019-05-03T02:30:43.689Z,3.40
2019-05-03T02:38:59.578Z,3.17
2019-05-03T02:47:35.712Z,2.90
2019-05-03T02:55:55.917Z,3.17
2019-05-03T03:04:15.494Z,2.90
2019-05-03T03:12:35.404Z,3.25
2019-05-03T03:20:55.200Z,3.87
2019-05-03T03:29:15.716Z,2.63
2019-05-03T03:37:32.220Z,2.80
2019-05-03T03:45:50.367Z,3.87
2019-05-03T03:54:09.442Z,2.70
2019-05-03T04:02:27.510Z,3.02
2019-05-03T04:10:46.314Z,3.93
2019-05-03T04:19:08.962Z,3.80
2019-05-03T04:27:27.659Z,3.57
2019-05-03T04:35:46.574Z,3.30
2019-05-03T04:44:06.384Z,4.30
2019-05-03T04:52:25.981Z,3.37
2019-05-03T05:00:42.653Z,3.40
2019-05-03T05:09:00.105Z,3.93
2019-05-03T05:17:26.326Z,3.27
2019-05-03T05:25:49.667Z,3.30
2019-05-03T05:34:08.853Z,3.57
2019-05-03T05:42:26.681Z,3.83
2019-05-03T05:50:44.977Z,3.30
2019-05-03T05:59:15.801Z,3.43
2019-05-03T06:08:04.850Z,3.97
2019-05-03T06:16:28.101Z,3.53
2019-05-03T06:24:51.186Z,3.60
2019-05-03T06:33:08.670Z,3.80
2019-05-03T06:41:26.104Z,3.50
2019-05-03T06:49:48.170Z,4.23
2019-05-03T06:58:05.113Z,4.03
2019-05-03T07:06:37.283Z,4.33
2019-05-03T07:14:50.509Z,2.90
2019-05-03T07:23:08.153Z,3.23
2019-05-03T07:40:25.515Z,3.13
2019-05-03T07:48:43.128Z,2.80
2019-05-03T07:57:05.462Z,3.67
2019-05-03T08:05:24.664Z,2.70
2019-05-03T08:13:44.514Z,3.10
2019-05-03T08:22:01.401Z,3.10
2019-05-03T08:30:25.076Z,3.20
2019-05-03T08:38:42.640Z,3.20
2019-05-03T08:47:00.097Z,3.30
2019-05-03T08:55:17.630Z,2.97
2019-05-03T09:03:37.985Z,3.47
2019-05-03T09:11:55.680Z,2.30
2019-05-03T09:20:49.884Z,2.63
2019-05-03T09:29:07.618Z,3.70
2019-05-03T09:37:25.402Z,2.00
2019-05-03T09:45:42.882Z,3.07
2019-05-03T09:54:10.599Z,4.00
2019-05-03T10:02:28.087Z,2.65
2019-05-03T10:11:07.857Z,2.83
2019-05-03T10:19:37.053Z,3.70
2019-05-03T10:27:47.693Z,3.00
2019-05-03T10:36:05.581Z,2.50
2019-05-03T10:44:24.600Z,2.47
2019-05-03T10:52:47.491Z,3.10
2019-05-03T11:01:05.169Z,3.27
2019-05-03T11:09:22.802Z,3.20
2019-05-03T11:17:40.204Z,2.40
2019-05-03T11:25:57.665Z,3.23
2019-05-03T11:34:16.109Z,2.42
2019-05-03T11:42:35.369Z,2.73
2019-05-03T11:50:54.593Z,3.73
2019-05-03T11:59:12.229Z,2.67
2019-05-03T12:07:39.125Z,2.73
2019-05-03T12:15:51.890Z,2.50
2019-05-03T12:24:09.811Z,2.50
2019-05-03T12:32:27.752Z,2.73
2019-05-03T12:41:06.414Z,2.50
2019-05-03T12:49:24.914Z,2.60
2019-05-03T12:57:42.554Z,2.70
2019-05-03T13:06:00.234Z,2.80
2019-05-03T13:14:17.672Z,3.90
2019-05-03T13:23:05.603Z,2.27
2019-05-03T13:31:25.112Z,3.60
2019-05-03T13:39:44.928Z,3.30
2019-05-03T13:48:01.876Z,3.00
2019-05-03T13:56:19.302Z,2.30
2019-05-03T14:04:49.313Z,2.70
2019-05-03T14:12:55.953Z,2.80
2019-05-03T14:21:21.107Z,3.13
2019-05-03T14:29:38.642Z,2.40
2019-05-03T14:37:56.064Z,2.65
2019-05-03T14:46:15.079Z,2.53
2019-05-03T14:54:34.611Z,3.27
2019-05-03T15:02:57.946Z,1.93
2019-05-03T15:11:15.026Z,2.30
2019-05-03T15:19:32.444Z,2.83
2019-05-03T15:27:49.916Z,3.20
2019-05-03T15:36:07.424Z,2.70
2019-05-03T15:44:59.583Z,3.07
2019-05-03T15:53:17.102Z,3.50
2019-05-03T16:01:35.362Z,2.90
2019-05-03T16:09:55.095Z,3.43
2019-05-03T16:18:12.195Z,3.03
2019-05-03T16:26:29.605Z,2.60
2019-05-03T16:34:47.025Z,3.83
2019-05-03T16:43:04.505Z,3.10
2019-05-03T16:51:22.045Z,3.17
2019-05-03T16:59:39.543Z,4.10
2019-05-03T17:08:17.940Z,2.40
2019-05-03T17:16:35.414Z,2.50
2019-05-03T17:24:52.858Z,4.20
2019-05-03T17:33:10.260Z,2.97
2019-05-03T17:41:42.010Z,3.60
2019-05-03T17:49:59.447Z,3.40
2019-05-03T17:58:24.299Z,3.60
2019-05-03T18:06:49.486Z,4.50
2019-05-03T18:15:07.370Z,7.00
2019-05-03T18:23:24.936Z,15.43
2019-05-03T18:31:44.505Z,3.90
2019-05-03T18:40:01.777Z,9.60
2019-05-03T18:48:19.392Z,3.97
2019-05-03T18:56:36.863Z,4.97
2019-05-03T19:04:55.673Z,10.60
2019-05-03T19:13:19.779Z,4.37
2019-05-03T19:21:37.360Z,7.25
2019-05-03T19:29:55.414Z,6.50
2019-05-03T19:38:15.080Z,3.75
2019-05-03T19:46:32.325Z,8.30
2019-05-03T19:54:49.847Z,5.50
2019-05-03T20:03:12.277Z,6.63
2019-05-03T20:11:29.730Z,12.13
2019-05-03T20:19:47.205Z,7.30
2019-05-03T20:28:05.044Z,5.10
2019-05-03T20:36:22.901Z,9.33
2019-05-03T20:44:57.278Z,3.60
2019-05-03T20:53:14.753Z,3.15
2019-05-03T21:01:32.241Z,9.70
2019-05-03T21:09:49.881Z,15.33
2019-05-03T21:18:38.867Z,9.47
2019-05-03T21:26:56.681Z,10.50
2019-05-03T21:35:14.788Z,12.63
2019-05-03T21:43:34.376Z,22.00
2019-05-03T21:52:04.589Z,13.80
2019-05-03T22:00:23.217Z,10.20
2019-05-03T22:08:40.706Z,23.07
2019-05-03T22:17:16.392Z,11.23
2019-05-03T22:25:34.962Z,10.13
2019-05-03T22:33:52.469Z,12.40
2019-05-03T22:42:16.217Z,17.53
2019-05-03T22:50:34.459Z,7.17
2019-05-03T22:58:52.130Z,14.60
2019-05-03T23:07:09.698Z,11.43
2019-05-03T23:15:27.312Z,8.87
2019-05-03T23:23:48.455Z,7.33
2019-05-03T23:32:05.961Z,10.50
2019-05-03T23:40:25.293Z,9.97
2019-05-03T23:48:44.542Z,10.10
2019-05-03T23:57:01.856Z,7.05
